Time;durP1;ratioP1;P1;durP2;ratioP2;P2;SDS_P1;SDS_P2;PMS_P1;PMS_P2;Temp;Humidity;BMP_temperature;BMP_pressure;BME280_temperature;BME280_humidity;BME280_pressure;Samples;Min_cycle;Max_cycle;Signal;HPM_P1;HPM_P2
2021/10/07 00:00:01;;;;;;;16.33;3.25;;;;;;;;;;4969506;28;20037;-76
2021/10/07 00:02:30;;;;;;;15.32;2.72;;;;;;;;;;4965390;28;20058;-76
2021/10/07 00:04:58;;;;;;;16.25;3.45;;;;;;;;;;4979754;28;20108;-76
2021/10/07 00:07:28;;;;;;;15.40;2.78;;;;;;;;;;4964641;28;20148;-76
2021/10/07 00:09:56;;;;;;;12.82;2.63;;;;;;;;;;4982730;28;20134;-76
2021/10/07 00:12:25;;;;;;;12.15;2.45;;;;;;;;;;4975228;28;20164;-76
2021/10/07 00:14:53;;;;;;;13.20;2.60;;;;;;;;;;4967342;28;20121;-76
2021/10/07 00:17:21;;;;;;;15.68;2.80;;;;;;;;;;4961355;28;20505;-76
2021/10/07 00:19:52;;;;;;;12.55;2.58;;;;;;;;;;4966079;28;20132;-76
2021/10/07 00:22:20;;;;;;;15.15;2.72;;;;;;;;;;4962168;28;20026;-75
2021/10/07 00:24:48;;;;;;;13.02;2.35;;;;;;;;;;4978859;28;20503;-76
2021/10/07 00:27:18;;;;;;;11.73;2.20;;;;;;;;;;4975786;28;20022;-75
2021/10/07 00:29:50;;;;;;;11.38;2.20;;;;;;;;;;4979938;28;20029;-77
2021/10/07 00:32:26;;;;;;;14.00;2.25;;;;;;;;;;4977130;28;20034;-75
2021/10/07 00:40:21;;;;;;;14.32;2.03;;;;;;;;;;4979906;28;21787;-75
2021/10/07 00:42:54;;;;;;;12.25;2.28;;;;;;;;;;4964575;28;20088;-75
2021/10/07 00:45:22;;;;;;;13.38;2.20;;;;;;;;;;4976911;28;22060;-75
2021/10/07 00:47:51;;;;;;;11.18;2.13;;;;;;;;;;4983282;28;20112;-76
2021/10/07 00:50:20;;;;;;;14.88;2.50;;;;;;;;;;4975242;28;20636;-77
2021/10/07 00:52:49;;;;;;;13.95;2.28;;;;;;;;;;4967838;28;20041;-75
2021/10/07 00:55:21;;;;;;;10.52;1.85;;;;;;;;;;4977154;28;20029;-76
2021/10/07 00:57:49;;;;;;;10.48;2.00;;;;;;;;;;4962931;28;20498;-75
2021/10/07 01:00:16;;;;;;;12.43;2.17;;;;;;;;;;4961906;28;21317;-74
2021/10/07 01:02:48;;;;;;;14.93;2.58;;;;;;;;;;4964406;28;20558;-75
2021/10/07 01:05:16;;;;;;;14.63;2.55;;;;;;;;;;4962869;28;20165;-77
2021/10/07 01:07:53;;;;;;;10.93;2.45;;;;;;;;;;4968925;28;20048;-75
2021/10/07 01:10:24;;;;;;;15.65;2.45;;;;;;;;;;4974985;28;20034;-74
2021/10/07 01:12:53;;;;;;;15.93;2.95;;;;;;;;;;4968020;28;20586;-75
2021/10/07 01:15:21;;;;;;;15.43;2.63;;;;;;;;;;4964774;28;20056;-75
2021/10/07 01:17:52;;;;;;;13.00;2.40;;;;;;;;;;4978850;28;20037;-75
2021/10/07 01:20:23;;;;;;;16.73;3.28;;;;;;;;;;4980018;28;20147;-75
2021/10/07 01:22:52;;;;;;;17.73;2.90;;;;;;;;;;4967729;28;20108;-74
2021/10/07 01:25:21;;;;;;;13.63;2.58;;;;;;;;;;4979126;28;20084;-75
2021/10/07 01:27:58;;;;;;;13.82;2.40;;;;;;;;;;4970569;28;20030;-75
2021/10/07 01:30:25;;;;;;;16.58;2.13;;;;;;;;;;4959568;28;20121;-77
2021/10/07 01:32:56;;;;;;;8.93;1.85;;;;;;;;;;4968755;28;20403;-77
2021/10/07 01:35:25;;;;;;;13.65;3.10;;;;;;;;;;4962844;28;20167;-75
2021/10/07 01:37:54;;;;;;;13.50;2.30;;;;;;;;;;4977237;28;20033;-77
2021/10/07 01:40:24;;;;;;;18.38;2.83;;;;;;;;;;4981865;28;20065;-75
2021/10/07 01:42:51;;;;;;;12.15;2.20;;;;;;;;;;4981251;28;20116;-75
2021/10/07 01:45:22;;;;;;;13.40;2.70;;;;;;;;;;4959843;28;20026;-75
2021/10/07 01:47:51;;;;;;;16.65;2.63;;;;;;;;;;4985284;28;20034;-75
2021/10/07 01:50:20;;;;;;;12.75;2.38;;;;;;;;;;4960810;28;20097;-75
2021/10/07 01:52:49;;;;;;;16.40;2.67;;;;;;;;;;4966096;28;20046;-75
2021/10/07 01:55:17;;;;;;;16.10;2.40;;;;;;;;;;4979629;28;20030;-75
2021/10/07 01:57:47;;;;;;;17.88;2.38;;;;;;;;;;4979723;28;20401;-75
2021/10/07 02:00:26;;;;;;;10.75;2.20;;;;;;;;;;4980883;28;20030;-75
2021/10/07 02:02:54;;;;;;;10.93;1.98;;;;;;;;;;4920398;28;20050;-77
2021/10/07 02:05:23;;;;;;;12.70;1.95;;;;;;;;;;4917573;28;24806;-75
2021/10/07 02:07:53;;;;;;;12.00;2.13;;;;;;;;;;4924514;28;20031;-75
2021/10/07 02:10:21;;;;;;;10.63;2.40;;;;;;;;;;4913427;28;20098;-75
2021/10/07 02:12:51;;;;;;;13.90;2.53;;;;;;;;;;4924119;28;20042;-75
2021/10/07 02:15:19;;;;;;;11.02;2.10;;;;;;;;;;4902798;28;20060;-76
2021/10/07 02:17:48;;;;;;;18.98;2.97;;;;;;;;;;4905739;28;20122;-76
2021/10/07 02:20:14;;;;;;;12.90;2.15;;;;;;;;;;4915297;28;20116;-76
2021/10/07 02:22:42;;;;;;;12.65;2.13;;;;;;;;;;4905625;28;20087;-76
2021/10/07 02:25:10;;;;;;;13.10;2.10;;;;;;;;;;4917585;28;20023;-76
2021/10/07 02:27:38;;;;;;;14.35;2.40;;;;;;;;;;4921268;28;20709;-76
2021/10/07 02:30:09;;;;;;;14.88;2.40;;;;;;;;;;4915461;28;20146;-76
2021/10/07 02:32:35;;;;;;;13.77;2.50;;;;;;;;;;4911551;28;20520;-76
2021/10/07 02:35:07;;;;;;;14.32;2.75;;;;;;;;;;4920244;28;20038;-76
2021/10/07 02:37:34;;;;;;;14.50;2.25;;;;;;;;;;4939886;28;20146;-75
2021/10/07 02:40:02;;;;;;;10.45;1.90;;;;;;;;;;4921205;28;20151;-75
2021/10/07 02:42:32;;;;;;;16.38;2.47;;;;;;;;;;4908138;28;20070;-75
2021/10/07 02:44:59;;;;;;;15.43;2.53;;;;;;;;;;4924872;28;20122;-75
2021/10/07 02:47:28;;;;;;;13.05;2.38;;;;;;;;;;4907834;28;20023;-75
2021/10/07 02:50:00;;;;;;;13.95;2.47;;;;;;;;;;4925205;28;20072;-75
2021/10/07 02:52:28;;;;;;;14.65;2.08;;;;;;;;;;4931833;28;20096;-74
2021/10/07 02:54:57;;;;;;;15.07;2.17;;;;;;;;;;4960641;28;20111;-75
2021/10/07 02:57:25;;;;;;;14.45;1.95;;;;;;;;;;4957671;28;21692;-74
2021/10/07 02:59:53;;;;;;;12.10;2.00;;;;;;;;;;4962918;28;20029;-75
2021/10/07 03:02:21;;;;;;;15.05;2.38;;;;;;;;;;4979832;28;20034;-76
2021/10/07 03:04:52;;;;;;;18.70;2.20;;;;;;;;;;4985001;28;20032;-74
2021/10/07 03:07:20;;;;;;;15.57;2.38;;;;;;;;;;4977562;28;20453;-74
2021/10/07 03:09:48;;;;;;;16.15;2.22;;;;;;;;;;4951402;28;20069;-77
2021/10/07 03:12:14;;;;;;;12.43;1.98;;;;;;;;;;4964828;28;20426;-75
2021/10/07 03:14:45;;;;;;;11.75;1.95;;;;;;;;;;4962867;28;20046;-77
2021/10/07 03:17:11;;;;;;;17.27;2.30;;;;;;;;;;4962951;28;20069;-77
2021/10/07 03:19:39;;;;;;;12.57;2.00;;;;;;;;;;4975757;28;20030;-77
2021/10/07 03:22:07;;;;;;;14.27;2.33;;;;;;;;;;4978587;28;20030;-77
2021/10/07 03:24:35;;;;;;;15.90;2.00;;;;;;;;;;4967535;28;20134;-76
2021/10/07 03:27:03;;;;;;;16.50;2.58;;;;;;;;;;4944254;28;20376;-77
2021/10/07 03:29:31;;;;;;;12.25;2.20;;;;;;;;;;4983965;28;20085;-77
2021/10/07 03:31:58;;;;;;;13.63;2.05;;;;;;;;;;4964551;28;20038;-77
2021/10/07 03:34:26;;;;;;;14.35;2.30;;;;;;;;;;4975992;28;20033;-77
2021/10/07 03:36:53;;;;;;;18.20;2.90;;;;;;;;;;4970310;28;20045;-75
2021/10/07 03:39:20;;;;;;;11.68;2.30;;;;;;;;;;4973862;28;20025;-76
2021/10/07 03:41:46;;;;;;;11.77;1.88;;;;;;;;;;4966544;28;20157;-75
2021/10/07 03:44:14;;;;;;;13.18;2.10;;;;;;;;;;4949272;28;20065;-77
2021/10/07 03:46:41;;;;;;;15.07;2.30;;;;;;;;;;4947771;28;20037;-77
2021/10/07 03:49:09;;;;;;;13.57;2.25;;;;;;;;;;4979247;28;20046;-74
2021/10/07 03:51:38;;;;;;;12.82;2.00;;;;;;;;;;4979186;28;20069;-75
2021/10/07 03:54:13;;;;;;;17.42;2.42;;;;;;;;;;4974574;28;20027;-76
2021/10/07 03:56:41;;;;;;;14.52;2.00;;;;;;;;;;4966479;28;20125;-75
2021/10/07 03:59:08;;;;;;;12.63;2.20;;;;;;;;;;4957913;28;20097;-75
2021/10/07 04:01:36;;;;;;;12.38;2.10;;;;;;;;;;4963536;28;20034;-75
2021/10/07 04:04:03;;;;;;;10.38;1.63;;;;;;;;;;4955320;28;20053;-77
2021/10/07 04:06:31;;;;;;;13.70;1.92;;;;;;;;;;4961071;28;20502;-75
2021/10/07 04:08:58;;;;;;;15.18;2.28;;;;;;;;;;4962355;28;20034;-77
2021/10/07 04:11:25;;;;;;;14.23;2.22;;;;;;;;;;4943036;28;20156;-75
2021/10/07 04:13:53;;;;;;;13.88;2.30;;;;;;;;;;4947758;28;20045;-75
2021/10/07 04:16:24;;;;;;;14.73;2.10;;;;;;;;;;4945106;28;20093;-76
2021/10/07 04:18:53;;;;;;;14.20;2.22;;;;;;;;;;4944127;28;20128;-76
2021/10/07 04:21:19;;;;;;;13.27;2.22;;;;;;;;;;4943255;28;20108;-76
2021/10/07 04:23:46;;;;;;;14.13;1.85;;;;;;;;;;4958969;28;20077;-76
2021/10/07 04:26:14;;;;;;;14.55;2.05;;;;;;;;;;4942731;28;20038;-76
2021/10/07 04:28:42;;;;;;;11.63;2.08;;;;;;;;;;4966035;28;20384;-75
2021/10/07 04:31:10;;;;;;;14.18;2.60;;;;;;;;;;4939834;28;20039;-75
2021/10/07 04:33:38;;;;;;;15.55;2.40;;;;;;;;;;4947312;28;20069;-75
2021/10/07 04:36:06;;;;;;;11.40;2.08;;;;;;;;;;4943128;28;20030;-75
2021/10/07 04:38:35;;;;;;;13.88;1.95;;;;;;;;;;4962679;28;21734;-74
2021/10/07 04:41:02;;;;;;;11.57;2.40;;;;;;;;;;4945970;28;20038;-75
2021/10/07 04:43:29;;;;;;;12.70;2.30;;;;;;;;;;4961649;28;20035;-75
2021/10/07 04:45:56;;;;;;;14.93;2.50;;;;;;;;;;4962003;28;20077;-75
2021/10/07 04:48:26;;;;;;;10.50;1.70;;;;;;;;;;4956281;28;20571;-76
2021/10/07 04:50:53;;;;;;;11.27;2.00;;;;;;;;;;4963397;28;20137;-77
2021/10/07 04:53:21;;;;;;;14.35;2.42;;;;;;;;;;4958424;28;20441;-75
2021/10/07 04:55:50;;;;;;;16.77;2.97;;;;;;;;;;4960810;28;20031;-76
2021/10/07 04:58:19;;;;;;;14.73;2.47;;;;;;;;;;4944272;28;20061;-75
2021/10/07 05:00:45;;;;;;;12.63;2.85;;;;;;;;;;4945495;28;20050;-76
2021/10/07 05:03:13;;;;;;;12.65;2.35;;;;;;;;;;4956738;28;20069;-76
2021/10/07 05:05:42;;;;;;;14.30;3.92;;;;;;;;;;4947258;28;20061;-77
2021/10/07 05:08:12;;;;;;;13.68;3.38;;;;;;;;;;4951155;28;20038;-76
2021/10/07 05:10:39;;;;;;;13.45;2.80;;;;;;;;;;4931333;28;20042;-76
2021/10/07 05:13:07;;;;;;;14.88;2.63;;;;;;;;;;4942043;28;20067;-76
2021/10/07 05:15:35;;;;;;;13.43;2.45;;;;;;;;;;4960376;28;20981;-76
2021/10/07 05:18:05;;;;;;;11.85;2.15;;;;;;;;;;4962223;28;20044;-76
2021/10/07 05:20:32;;;;;;;11.82;2.00;;;;;;;;;;4960183;28;20026;-76
2021/10/07 05:22:59;;;;;;;12.25;2.10;;;;;;;;;;4960963;28;20033;-76
2021/10/07 05:25:26;;;;;;;11.02;2.10;;;;;;;;;;4946045;28;20045;-76
2021/10/07 05:27:54;;;;;;;11.38;2.10;;;;;;;;;;4959811;28;20019;-76
2021/10/07 05:30:22;;;;;;;16.88;2.47;;;;;;;;;;4960331;28;20046;-77
2021/10/07 05:32:49;;;;;;;11.23;2.33;;;;;;;;;;4944532;28;20030;-76
2021/10/07 05:35:17;;;;;;;15.35;2.65;;;;;;;;;;4923487;28;20042;-77
2021/10/07 05:37:44;;;;;;;12.70;2.15;;;;;;;;;;4964592;28;20031;-77
2021/10/07 05:40:12;;;;;;;11.82;2.10;;;;;;;;;;4922433;28;20452;-76
2021/10/07 05:42:40;;;;;;;13.77;2.20;;;;;;;;;;4959904;28;20018;-76
2021/10/07 05:45:10;;;;;;;11.80;2.00;;;;;;;;;;4926072;28;20138;-76
2021/10/07 05:47:39;;;;;;;10.65;2.30;;;;;;;;;;4960733;28;20080;-75
2021/10/07 05:50:09;;;;;;;11.95;2.00;;;;;;;;;;4950650;28;20030;-77
2021/10/07 05:52:36;;;;;;;12.05;2.10;;;;;;;;;;4959043;28;20068;-76
2021/10/07 05:55:06;;;;;;;12.02;2.33;;;;;;;;;;4957671;28;20057;-75
2021/10/07 05:57:33;;;;;;;9.50;2.05;;;;;;;;;;4953756;28;20034;-76
2021/10/07 06:00:02;;;;;;;12.27;2.50;;;;;;;;;;4942302;28;20039;-76
2021/10/07 06:02:29;;;;;;;14.60;1.90;;;;;;;;;;4969124;28;20069;-76
2021/10/07 06:05:03;;;;;;;10.20;1.80;;;;;;;;;;4980410;28;20025;-76
2021/10/07 06:07:31;;;;;;;8.93;1.60;;;;;;;;;;4981175;28;20026;-76
2021/10/07 06:10:00;;;;;;;13.75;2.50;;;;;;;;;;4966652;28;20080;-76
2021/10/07 06:12:27;;;;;;;15.05;2.53;;;;;;;;;;4975486;28;20545;-76
2021/10/07 06:15:01;;;;;;;11.15;2.45;;;;;;;;;;4965002;28;20644;-76
2021/10/07 06:17:28;;;;;;;17.60;2.85;;;;;;;;;;4977379;28;20136;-76
2021/10/07 06:20:16;;;;;;;8.57;1.90;;;;;;;;;;4978726;28;20107;-76
2021/10/07 06:22:43;;;;;;;19.23;5.97;;;;;;;;;;4978523;28;20033;-76
2021/10/07 06:25:10;;;;;;;17.20;3.22;;;;;;;;;;4976185;28;20014;-76
2021/10/07 06:27:37;;;;;;;13.18;2.83;;;;;;;;;;4963240;28;20125;-76
2021/10/07 06:30:07;;;;;;;13.90;2.30;;;;;;;;;;4973259;28;20037;-76
2021/10/07 06:32:33;;;;;;;13.38;2.72;;;;;;;;;;4975903;28;20045;-77
2021/10/07 06:35:00;;;;;;;12.57;2.47;;;;;;;;;;4979932;28;20034;-75
2021/10/07 06:37:29;;;;;;;10.40;2.35;;;;;;;;;;4979466;28;20123;-75
2021/10/07 06:39:56;;;;;;;12.45;2.20;;;;;;;;;;4965080;28;20621;-75
2021/10/07 06:42:23;;;;;;;11.05;2.05;;;;;;;;;;4974906;28;20108;-75
2021/10/07 06:44:50;;;;;;;12.02;2.30;;;;;;;;;;4961586;28;20664;-75
2021/10/07 06:47:17;;;;;;;8.60;1.92;;;;;;;;;;4976463;28;20041;-76
2021/10/07 06:49:45;;;;;;;12.23;2.60;;;;;;;;;;4975344;28;20107;-76
2021/10/07 06:52:11;;;;;;;15.77;2.60;;;;;;;;;;4958045;28;20025;-76
2021/10/07 06:54:38;;;;;;;11.15;1.90;;;;;;;;;;4981938;28;20057;-76
2021/10/07 06:57:05;;;;;;;13.68;2.58;;;;;;;;;;4972199;28;20037;-76
2021/10/07 06:59:32;;;;;;;12.32;2.13;;;;;;;;;;4982167;28;20546;-76
2021/10/07 07:01:59;;;;;;;15.55;2.85;;;;;;;;;;4980002;28;20049;-76
2021/10/07 07:04:26;;;;;;;16.08;3.10;;;;;;;;;;4942770;28;20046;-76
2021/10/07 07:06:54;;;;;;;16.35;2.85;;;;;;;;;;4966132;28;20031;-76
2021/10/07 07:09:22;;;;;;;10.55;2.05;;;;;;;;;;4953487;28;20081;-75
2021/10/07 07:11:48;;;;;;;12.00;2.53;;;;;;;;;;4963878;28;20070;-76
2021/10/07 07:14:17;;;;;;;13.02;2.03;;;;;;;;;;4961963;28;20165;-76
2021/10/07 07:16:46;;;;;;;11.32;1.85;;;;;;;;;;4954757;28;20403;-76
2021/10/07 07:19:13;;;;;;;11.55;2.17;;;;;;;;;;4944168;28;20049;-75
2021/10/07 07:21:40;;;;;;;11.38;2.03;;;;;;;;;;4959051;28;20423;-76
2021/10/07 07:24:09;;;;;;;8.70;1.80;;;;;;;;;;4941755;28;20030;-76
2021/10/07 07:26:36;;;;;;;10.15;1.92;;;;;;;;;;4946572;28;20027;-76
2021/10/07 07:29:04;;;;;;;9.13;1.75;;;;;;;;;;4939358;28;20042;-76
2021/10/07 07:31:32;;;;;;;8.95;1.70;;;;;;;;;;4960722;28;20498;-76
2021/10/07 07:34:01;;;;;;;11.45;2.60;;;;;;;;;;4947041;28;20026;-75
2021/10/07 07:36:27;;;;;;;17.70;2.53;;;;;;;;;;4945162;28;20038;-75
2021/10/07 07:38:54;;;;;;;14.32;3.10;;;;;;;;;;4948088;28;20408;-77
2021/10/07 07:41:21;;;;;;;13.80;3.20;;;;;;;;;;4954895;28;20821;-77
2021/10/07 07:43:48;;;;;;;14.25;2.80;;;;;;;;;;4946324;28;20118;-77
2021/10/07 07:46:18;;;;;;;18.98;3.33;;;;;;;;;;4960726;28;20027;-77
2021/10/07 07:48:46;;;;;;;16.42;3.13;;;;;;;;;;4962261;28;20049;-77
2021/10/07 07:51:14;;;;;;;18.05;3.15;;;;;;;;;;4948215;28;20030;-75
2021/10/07 07:53:41;;;;;;;17.05;3.22;;;;;;;;;;4949619;28;20565;-75
2021/10/07 07:56:09;;;;;;;14.18;2.60;;;;;;;;;;4943447;28;20042;-75
2021/10/07 07:58:37;;;;;;;11.90;2.38;;;;;;;;;;4964237;28;20031;-76
2021/10/07 08:01:05;;;;;;;14.95;2.42;;;;;;;;;;4958189;28;20026;-76
2021/10/07 08:03:34;;;;;;;16.58;3.10;;;;;;;;;;4976804;28;20586;-76
2021/10/07 08:06:04;;;;;;;14.50;2.90;;;;;;;;;;4983814;28;20156;-76
2021/10/07 08:08:33;;;;;;;13.77;3.17;;;;;;;;;;4965360;28;20372;-76
2021/10/07 08:11:00;;;;;;;14.68;3.40;;;;;;;;;;4981596;28;20025;-75
2021/10/07 08:13:28;;;;;;;15.13;2.95;;;;;;;;;;4961751;28;20479;-76
2021/10/07 08:15:56;;;;;;;16.35;3.47;;;;;;;;;;4984159;28;20068;-76
2021/10/07 08:18:22;;;;;;;12.25;2.63;;;;;;;;;;4964736;28;20038;-76
2021/10/07 08:20:53;;;;;;;14.50;3.05;;;;;;;;;;4983355;28;20034;-75
2021/10/07 08:23:30;;;;;;;15.50;3.20;;;;;;;;;;4981503;28;20119;-77
2021/10/07 08:25:58;;;;;;;14.07;2.38;;;;;;;;;;4981077;28;20030;-75
2021/10/07 08:28:27;;;;;;;12.18;2.38;;;;;;;;;;4980254;28;20113;-76
2021/10/07 08:30:55;;;;;;;15.13;2.83;;;;;;;;;;4968053;28;20088;-78
2021/10/07 08:33:23;;;;;;;13.52;2.50;;;;;;;;;;4976234;28;20073;-78
2021/10/07 08:35:50;;;;;;;12.30;2.55;;;;;;;;;;4954200;28;20030;-78
2021/10/07 08:38:20;;;;;;;13.60;2.85;;;;;;;;;;4976425;28;20045;-77
2021/10/07 08:40:48;;;;;;;13.27;2.50;;;;;;;;;;4982439;28;20532;-77
2021/10/07 08:43:17;;;;;;;12.25;3.03;;;;;;;;;;4960568;28;20510;-75
2021/10/07 08:45:45;;;;;;;13.73;3.13;;;;;;;;;;4961751;28;20108;-76
2021/10/07 08:48:13;;;;;;;11.68;2.90;;;;;;;;;;4980745;28;20022;-75
2021/10/07 08:50:39;;;;;;;12.80;2.67;;;;;;;;;;4966471;28;20042;-76
2021/10/07 08:53:08;;;;;;;13.68;2.72;;;;;;;;;;4978049;28;20133;-77
2021/10/07 08:55:36;;;;;;;12.57;2.83;;;;;;;;;;4985942;28;20034;-76
2021/10/07 08:58:05;;;;;;;18.67;3.20;;;;;;;;;;4976178;28;20030;-77
2021/10/07 09:00:31;;;;;;;17.13;3.65;;;;;;;;;;4983363;28;20784;-77
2021/10/07 09:03:15;;;;;;;15.38;3.80;;;;;;;;;;4965741;28;20156;-76
2021/10/07 09:05:44;;;;;;;15.27;3.47;;;;;;;;;;4964272;28;20057;-76
2021/10/07 09:08:14;;;;;;;14.63;3.20;;;;;;;;;;4962961;28;20038;-76
2021/10/07 09:10:55;;;;;;;13.30;3.10;;;;;;;;;;4979382;28;20034;-77
2021/10/07 09:13:27;;;;;;;12.68;3.42;;;;;;;;;;4979073;28;20157;-78
2021/10/07 09:15:58;;;;;;;13.27;2.83;;;;;;;;;;4967894;28;20779;-78
2021/10/07 09:18:31;;;;;;;11.93;3.22;;;;;;;;;;4960238;28;20042;-77
2021/10/07 09:21:01;;;;;;;14.20;3.60;;;;;;;;;;4983804;28;20038;-75
2021/10/07 09:23:35;;;;;;;10.02;2.65;;;;;;;;;;4971037;28;20129;-76
2021/10/07 09:26:07;;;;;;;12.35;2.80;;;;;;;;;;4963188;28;20042;-76
2021/10/07 09:28:57;;;;;;;11.32;3.00;;;;;;;;;;4983068;28;20029;-75
2021/10/07 09:31:27;;;;;;;14.82;3.28;;;;;;;;;;4982143;28;20156;-75
2021/10/07 09:34:05;;;;;;;12.18;2.80;;;;;;;;;;4976368;28;20052;-78
2021/10/07 09:36:36;;;;;;;12.70;2.78;;;;;;;;;;4983537;28;20045;-75
2021/10/07 09:39:07;;;;;;;13.93;2.38;;;;;;;;;;4965225;28;20026;-76
2021/10/07 09:41:37;;;;;;;12.18;2.35;;;;;;;;;;4979000;28;20050;-76
2021/10/07 09:44:10;;;;;;;13.35;2.70;;;;;;;;;;4976813;28;20044;-78
2021/10/07 09:46:45;;;;;;;10.23;2.38;;;;;;;;;;4962835;28;20495;-76
2021/10/07 09:49:22;;;;;;;12.50;2.17;;;;;;;;;;4976826;28;20042;-76
2021/10/07 09:51:52;;;;;;;11.25;2.00;;;;;;;;;;4983956;28;20052;-76
2021/10/07 09:54:24;;;;;;;11.85;2.10;;;;;;;;;;4977075;28;20069;-76
2021/10/07 09:56:55;;;;;;;14.18;2.30;;;;;;;;;;4965785;28;20049;-76
2021/10/07 09:59:24;;;;;;;10.70;3.05;;;;;;;;;;4980628;28;20076;-76
2021/10/07 10:01:54;;;;;;;13.07;2.75;;;;;;;;;;4963779;28;20030;-76
2021/10/07 10:04:27;;;;;;;11.38;3.13;;;;;;;;;;4976574;28;20051;-76
2021/10/07 10:06:56;;;;;;;10.25;2.35;;;;;;;;;;4964448;28;20183;-76
2021/10/07 10:09:28;;;;;;;11.68;2.60;;;;;;;;;;4975191;28;21078;-76
2021/10/07 10:11:59;;;;;;;10.82;2.80;;;;;;;;;;4964713;28;20025;-76
2021/10/07 10:14:26;;;;;;;12.70;2.80;;;;;;;;;;4973477;28;20128;-75
2021/10/07 10:16:53;;;;;;;10.70;2.30;;;;;;;;;;4965163;28;20088;-79
2021/10/07 10:19:26;;;;;;;10.95;2.75;;;;;;;;;;4955972;28;20042;-78
2021/10/07 10:21:55;;;;;;;13.13;3.25;;;;;;;;;;4980508;28;20040;-76
2021/10/07 10:24:25;;;;;;;12.70;2.38;;;;;;;;;;4939054;28;20043;-76
2021/10/07 10:27:00;;;;;;;9.95;2.00;;;;;;;;;;4938115;28;20948;-77
2021/10/07 10:29:38;;;;;;;9.60;2.05;;;;;;;;;;4944250;28;20095;-77
2021/10/07 10:32:05;;;;;;;15.30;3.00;;;;;;;;;;4934457;28;20042;-77
2021/10/07 10:34:52;;;;;;;11.85;2.30;;;;;;;;;;4924939;28;20069;-77
2021/10/07 10:37:19;;;;;;;9.05;1.90;;;;;;;;;;4934798;28;20038;-78
2021/10/07 10:39:47;;;;;;;11.40;1.90;;;;;;;;;;4940153;28;20034;-75
2021/10/07 10:42:26;;;;;;;12.93;2.42;;;;;;;;;;4936212;28;20500;-78
2021/10/07 10:45:01;;;;;;;11.82;2.45;;;;;;;;;;4910145;28;20039;-76
2021/10/07 10:47:34;;;;;;;11.70;4.38;;;;;;;;;;4939040;28;20050;-76
2021/10/07 10:50:10;;;;;;;16.10;3.70;;;;;;;;;;4939864;28;20538;-76
2021/10/07 10:52:54;;;;;;;10.60;3.08;;;;;;;;;;4928080;28;20031;-76
2021/10/07 10:55:35;;;;;;;11.65;2.63;;;;;;;;;;4935898;28;20035;-78
2021/10/07 10:58:15;;;;;;;10.93;2.47;;;;;;;;;;4936098;28;20198;-76
2021/10/07 11:00:48;;;;;;;14.48;3.03;;;;;;;;;;4943658;28;20121;-76
2021/10/07 11:03:26;;;;;;;9.25;2.28;;;;;;;;;;4936350;28;20535;-77
2021/10/07 11:06:05;;;;;;;10.70;2.83;;;;;;;;;;4936275;28;20655;-76
2021/10/07 11:08:52;;;;;;;14.07;2.83;;;;;;;;;;4942994;28;20866;-76
2021/10/07 11:11:30;;;;;;;9.30;2.33;;;;;;;;;;4934550;28;20523;-76
2021/10/07 11:13:57;;;;;;;10.88;2.38;;;;;;;;;;4944097;28;20042;-76
2021/10/07 11:16:32;;;;;;;10.75;2.42;;;;;;;;;;4982868;28;20362;-76
2021/10/07 11:19:12;;;;;;;11.13;2.45;;;;;;;;;;4972726;28;20061;-76
2021/10/07 11:21:41;;;;;;;12.70;2.53;;;;;;;;;;4986059;28;20088;-76
2021/10/07 11:24:15;;;;;;;10.63;2.28;;;;;;;;;;4967308;28;20042;-77
2021/10/07 11:26:45;;;;;;;10.77;2.30;;;;;;;;;;4963372;28;20565;-77
2021/10/07 11:29:12;;;;;;;11.80;2.53;;;;;;;;;;4965258;28;20031;-77
2021/10/07 11:31:44;;;;;;;11.45;2.13;;;;;;;;;;4967685;28;20501;-76
2021/10/07 11:34:12;;;;;;;10.93;2.30;;;;;;;;;;4946082;28;20562;-76
2021/10/07 11:36:40;;;;;;;12.88;2.17;;;;;;;;;;4944616;28;20037;-76
2021/10/07 11:39:08;;;;;;;9.88;2.28;;;;;;;;;;4933715;28;20047;-77
2021/10/07 11:41:36;;;;;;;9.80;2.08;;;;;;;;;;4943953;28;21298;-76
2021/10/07 11:44:05;;;;;;;9.13;2.15;;;;;;;;;;4937996;28;20046;-77
2021/10/07 11:46:34;;;;;;;9.90;2.03;;;;;;;;;;4938489;28;20058;-76
2021/10/07 11:49:01;;;;;;;10.77;2.47;;;;;;;;;;4926674;28;20071;-76
2021/10/07 11:51:30;;;;;;;9.52;2.00;;;;;;;;;;4940509;28;20219;-76
2021/10/07 11:54:07;;;;;;;10.40;2.30;;;;;;;;;;4926051;28;20042;-76
2021/10/07 11:56:40;;;;;;;11.45;2.38;;;;;;;;;;4943908;28;20125;-77
2021/10/07 11:59:11;;;;;;;11.15;2.33;;;;;;;;;;4918806;28;20047;-76
2021/10/07 12:01:40;;;;;;;10.57;2.15;;;;;;;;;;4942859;28;20046;-76
2021/10/07 12:04:12;;;;;;;10.80;2.08;;;;;;;;;;4936296;28;20047;-78
2021/10/07 12:06:42;;;;;;;10.70;2.10;;;;;;;;;;4940972;28;20039;-76
2021/10/07 12:09:13;;;;;;;9.93;2.20;;;;;;;;;;4924451;28;20042;-76
2021/10/07 12:11:41;;;;;;;9.73;2.00;;;;;;;;;;4947315;28;20039;-78
2021/10/07 12:14:09;;;;;;;10.50;2.17;;;;;;;;;;4924097;28;20110;-77
2021/10/07 12:16:42;;;;;;;9.55;2.25;;;;;;;;;;4925059;28;20050;-77
2021/10/07 12:19:13;;;;;;;10.57;2.20;;;;;;;;;;4921043;28;20131;-76
2021/10/07 12:21:45;;;;;;;9.45;2.05;;;;;;;;;;4946791;28;20124;-76
2021/10/07 12:24:17;;;;;;;10.93;2.25;;;;;;;;;;4980006;28;20054;-77
2021/10/07 12:26:49;;;;;;;10.60;2.35;;;;;;;;;;4981467;28;20043;-77
2021/10/07 12:29:22;;;;;;;10.32;3.80;;;;;;;;;;4978807;28;20033;-77
2021/10/07 12:31:48;;;;;;;12.98;3.28;;;;;;;;;;4960200;28;20042;-77
2021/10/07 12:34:19;;;;;;;11.77;2.70;;;;;;;;;;4942333;28;20407;-77
2021/10/07 12:36:48;;;;;;;10.20;2.05;;;;;;;;;;4946034;28;20049;-77
2021/10/07 12:39:21;;;;;;;12.73;2.25;;;;;;;;;;4955355;28;20362;-77
2021/10/07 12:41:58;;;;;;;11.05;2.20;;;;;;;;;;4959182;28;20069;-78
2021/10/07 12:44:31;;;;;;;8.25;1.95;;;;;;;;;;4958970;28;20034;-77
2021/10/07 12:47:01;;;;;;;12.35;1.88;;;;;;;;;;4960503;28;20089;-77
2021/10/07 12:49:33;;;;;;;9.45;1.92;;;;;;;;;;4949676;28;20042;-76
2021/10/07 12:52:01;;;;;;;8.43;1.92;;;;;;;;;;4961086;28;20034;-76
2021/10/07 12:54:32;;;;;;;9.50;2.10;;;;;;;;;;4962001;28;20161;-75
2021/10/07 12:56:59;;;;;;;9.93;1.98;;;;;;;;;;4961271;28;20232;-76
2021/10/07 12:59:28;;;;;;;10.95;2.17;;;;;;;;;;4957761;28;20038;-76
2021/10/07 13:01:55;;;;;;;11.20;2.53;;;;;;;;;;4962080;28;20062;-76
2021/10/07 13:04:22;;;;;;;12.88;2.17;;;;;;;;;;4953794;28;21944;-76
2021/10/07 13:06:54;;;;;;;10.45;1.80;;;;;;;;;;4946320;28;20046;-76
2021/10/07 13:09:22;;;;;;;10.85;2.00;;;;;;;;;;4960811;28;20034;-77
2021/10/07 13:11:54;;;;;;;11.00;1.90;;;;;;;;;;4959815;28;20038;-75
2021/10/07 13:14:21;;;;;;;9.75;2.00;;;;;;;;;;4945006;28;20130;-76
2021/10/07 13:16:49;;;;;;;13.98;2.50;;;;;;;;;;4963257;28;20074;-76
2021/10/07 13:19:15;;;;;;;12.02;2.10;;;;;;;;;;4957163;28;20112;-76
2021/10/07 13:21:46;;;;;;;10.18;1.60;;;;;;;;;;4968701;28;20057;-77
2021/10/07 13:24:15;;;;;;;11.20;2.22;;;;;;;;;;4976764;28;20022;-76
2021/10/07 13:26:47;;;;;;;12.45;1.75;;;;;;;;;;4985057;28;20049;-78
2021/10/07 13:29:17;;;;;;;10.50;2.00;;;;;;;;;;4980385;28;20038;-76
2021/10/07 13:31:43;;;;;;;9.02;1.80;;;;;;;;;;4963354;28;20034;-75
2021/10/07 13:34:22;;;;;;;9.50;1.70;;;;;;;;;;4983922;28;20028;-76
2021/10/07 13:36:48;;;;;;;11.48;2.08;;;;;;;;;;4970822;28;20589;-78
2021/10/07 13:39:20;;;;;;;12.25;1.88;;;;;;;;;;4962209;28;20068;-75
2021/10/07 13:41:47;;;;;;;9.63;1.95;;;;;;;;;;4987049;28;20029;-76
2021/10/07 13:44:17;;;;;;;12.35;2.10;;;;;;;;;;4977295;28;20052;-78
2021/10/07 13:46:47;;;;;;;15.98;2.60;;;;;;;;;;4986007;28;20029;-78
2021/10/07 13:49:17;;;;;;;15.40;2.50;;;;;;;;;;4981304;28;20045;-76
2021/10/07 13:51:45;;;;;;;14.90;2.85;;;;;;;;;;4964641;28;20100;-76
2021/10/07 13:54:14;;;;;;;15.35;2.40;;;;;;;;;;4981720;28;20033;-76
2021/10/07 13:56:46;;;;;;;12.25;2.30;;;;;;;;;;4967791;28;20092;-75
2021/10/07 13:59:16;;;;;;;8.68;1.95;;;;;;;;;;4977498;28;20033;-76
2021/10/07 14:01:44;;;;;;;13.45;2.35;;;;;;;;;;4984709;28;20092;-76
2021/10/07 14:04:10;;;;;;;12.52;1.80;;;;;;;;;;4945153;28;20096;-76
2021/10/07 14:06:37;;;;;;;9.48;2.13;;;;;;;;;;4971206;28;20030;-79
2021/10/07 14:09:05;;;;;;;11.60;1.90;;;;;;;;;;4980985;28;20025;-76
2021/10/07 14:11:34;;;;;;;10.82;2.45;;;;;;;;;;4960081;28;20149;-76
2021/10/07 14:14:12;;;;;;;12.90;2.40;;;;;;;;;;5040516;27;20451;-76
2021/10/07 14:16:39;;;;;;;16.48;2.90;;;;;;;;;;5038685;28;20039;-78
2021/10/07 14:19:10;;;;;;;10.32;2.55;;;;;;;;;;5040230;28;20040;-76
2021/10/07 14:21:38;;;;;;;11.45;2.25;;;;;;;;;;5041407;28;20072;-78
2021/10/07 14:24:07;;;;;;;13.73;2.10;;;;;;;;;;5039655;28;20170;-77
2021/10/07 14:26:33;;;;;;;12.43;2.63;;;;;;;;;;5044175;28;20031;-77
2021/10/07 14:29:03;;;;;;;12.05;2.88;;;;;;;;;;5036294;28;20045;-77
2021/10/07 14:31:32;;;;;;;10.95;2.17;;;;;;;;;;5038511;28;20043;-77
2021/10/07 14:34:02;;;;;;;10.80;2.65;;;;;;;;;;5038560;28;20028;-77
2021/10/07 14:36:28;;;;;;;11.18;2.17;;;;;;;;;;5039569;28;20033;-77
2021/10/07 14:38:55;;;;;;;10.85;2.05;;;;;;;;;;5045530;28;20037;-77
2021/10/07 14:41:25;;;;;;;12.80;2.58;;;;;;;;;;5029161;28;20103;-76
2021/10/07 14:43:52;;;;;;;10.15;2.20;;;;;;;;;;5037281;28;20611;-76
2021/10/07 14:46:23;;;;;;;11.07;2.70;;;;;;;;;;5032036;28;20028;-75
2021/10/07 14:48:53;;;;;;;9.63;2.22;;;;;;;;;;5033341;28;20033;-79